sensor_id;sensor_type;location;lat;lon;timestamp;P1;durP1;ratioP1;P2;durP2;ratioP2
5841;SDS011;2947;52.276;9.946;2022-09-01T00:01:41;2.13;;;1.00;;
5841;SDS011;2947;52.276;9.946;2022-09-01T00:04:12;12.60;;;2.17;;
5841;SDS011;2947;52.276;9.946;2022-09-01T00:06:41;3.22;;;1.02;;
5841;SDS011;2947;52.276;9.946;2022-09-01T00:09:09;2.65;;;1.27;;
5841;SDS011;2947;52.276;9.946;2022-09-01T00:11:40;3.10;;;1.20;;
5841;SDS011;2947;52.276;9.946;2022-09-01T00:14:09;2.08;;;0.93;;
5841;SDS011;2947;52.276;9.946;2022-09-01T00:16:35;2.45;;;1.00;;
5841;SDS011;2947;52.276;9.946;2022-09-01T00:19:01;3.67;;;1.00;;
5841;SDS011;2947;52.276;9.946;2022-09-01T00:21:32;2.00;;;0.95;;
5841;SDS011;2947;52.276;9.946;2022-09-01T00:24:02;2.67;;;1.02;;
5841;SDS011;2947;52.276;9.946;2022-09-01T00:26:29;3.75;;;1.30;;
5841;SDS011;2947;52.276;9.946;2022-09-01T00:28:55;7.07;;;1.15;;
5841;SDS011;2947;52.276;9.946;2022-09-01T00:31:21;3.70;;;1.70;;
5841;SDS011;2947;52.276;9.946;2022-09-01T00:33:48;1.80;;;0.90;;
5841;SDS011;2947;52.276;9.946;2022-09-01T00:36:15;3.47;;;1.13;;
5841;SDS011;2947;52.276;9.946;2022-09-01T00:38:41;2.72;;;1.30;;
5841;SDS011;2947;52.276;9.946;2022-09-01T00:41:07;3.63;;;1.17;;
5841;SDS011;2947;52.276;9.946;2022-09-01T00:46:13;3.65;;;1.00;;
5841;SDS011;2947;52.276;9.946;2022-09-01T00:48:43;8.18;;;1.50;;
5841;SDS011;2947;52.276;9.946;2022-09-01T00:51:10;4.22;;;0.98;;
5841;SDS011;2947;52.276;9.946;2022-09-01T00:53:37;2.55;;;1.00;;
5841;SDS011;2947;52.276;9.946;2022-09-01T00:56:07;2.53;;;1.20;;
5841;SDS011;2947;52.276;9.946;2022-09-01T00:58:34;2.92;;;0.70;;
5841;SDS011;2947;52.276;9.946;2022-09-01T01:01:02;4.32;;;1.15;;
5841;SDS011;2947;52.276;9.946;2022-09-01T01:03:30;2.75;;;0.98;;
5841;SDS011;2947;52.276;9.946;2022-09-01T01:05:57;2.42;;;1.33;;
5841;SDS011;2947;52.276;9.946;2022-09-01T01:08:30;4.03;;;1.30;;
5841;SDS011;2947;52.276;9.946;2022-09-01T01:10:58;3.15;;;1.23;;
5841;SDS011;2947;52.276;9.946;2022-09-01T01:16:29;3.03;;;1.30;;
5841;SDS011;2947;52.276;9.946;2022-09-01T01:18:55;2.15;;;0.90;;
5841;SDS011;2947;52.276;9.946;2022-09-01T01:21:24;7.13;;;1.35;;
5841;SDS011;2947;52.276;9.946;2022-09-01T01:24:21;2.30;;;1.10;;
5841;SDS011;2947;52.276;9.946;2022-09-01T01:26:48;3.45;;;1.40;;
5841;SDS011;2947;52.276;9.946;2022-09-01T01:29:15;2.30;;;1.08;;
5841;SDS011;2947;52.276;9.946;2022-09-01T01:31:42;2.85;;;1.00;;
5841;SDS011;2947;52.276;9.946;2022-09-01T01:34:11;2.13;;;0.95;;
5841;SDS011;2947;52.276;9.946;2022-09-01T01:36:38;3.15;;;1.23;;
5841;SDS011;2947;52.276;9.946;2022-09-01T01:41:40;2.35;;;1.00;;
5841;SDS011;2947;52.276;9.946;2022-09-01T01:44:13;2.25;;;1.20;;
5841;SDS011;2947;52.276;9.946;2022-09-01T01:46:42;4.13;;;1.20;;
5841;SDS011;2947;52.276;9.946;2022-09-01T01:49:14;4.13;;;1.17;;
5841;SDS011;2947;52.276;9.946;2022-09-01T01:51:45;2.38;;;1.02;;
5841;SDS011;2947;52.276;9.946;2022-09-01T01:54:13;4.00;;;1.38;;
5841;SDS011;2947;52.276;9.946;2022-09-01T01:56:43;5.07;;;1.10;;
5841;SDS011;2947;52.276;9.946;2022-09-01T01:59:09;4.38;;;1.20;;
5841;SDS011;2947;52.276;9.946;2022-09-01T02:01:39;4.03;;;1.20;;
5841;SDS011;2947;52.276;9.946;2022-09-01T02:04:07;3.35;;;1.15;;
5841;SDS011;2947;52.276;9.946;2022-09-01T02:06:35;2.00;;;1.00;;
5841;SDS011;2947;52.276;9.946;2022-09-01T02:09:05;2.00;;;1.10;;
5841;SDS011;2947;52.276;9.946;2022-09-01T02:11:32;2.03;;;1.05;;
5841;SDS011;2947;52.276;9.946;2022-09-01T02:14:01;2.35;;;1.05;;
5841;SDS011;2947;52.276;9.946;2022-09-01T02:16:30;2.40;;;1.33;;
5841;SDS011;2947;52.276;9.946;2022-09-01T02:18:58;4.50;;;1.33;;
5841;SDS011;2947;52.276;9.946;2022-09-01T02:21:26;3.45;;;1.40;;
5841;SDS011;2947;52.276;9.946;2022-09-01T02:23:57;2.92;;;1.20;;
5841;SDS011;2947;52.276;9.946;2022-09-01T02:26:36;2.83;;;1.40;;
5841;SDS011;2947;52.276;9.946;2022-09-01T02:29:08;2.38;;;1.30;;
5841;SDS011;2947;52.276;9.946;2022-09-01T02:31:45;2.75;;;1.20;;
5841;SDS011;2947;52.276;9.946;2022-09-01T02:34:17;3.58;;;1.77;;
5841;SDS011;2947;52.276;9.946;2022-09-01T02:36:48;2.72;;;1.10;;
5841;SDS011;2947;52.276;9.946;2022-09-01T02:39:20;4.90;;;1.42;;
5841;SDS011;2947;52.276;9.946;2022-09-01T02:41:56;3.30;;;1.20;;
5841;SDS011;2947;52.276;9.946;2022-09-01T02:44:26;2.75;;;1.42;;
5841;SDS011;2947;52.276;9.946;2022-09-01T02:46:55;3.72;;;1.15;;
5841;SDS011;2947;52.276;9.946;2022-09-01T02:49:22;2.90;;;1.58;;
5841;SDS011;2947;52.276;9.946;2022-09-01T02:51:52;3.28;;;1.50;;
5841;SDS011;2947;52.276;9.946;2022-09-01T02:54:25;2.70;;;1.55;;
5841;SDS011;2947;52.276;9.946;2022-09-01T02:56:59;5.38;;;1.50;;
5841;SDS011;2947;52.276;9.946;2022-09-01T02:59:26;4.97;;;1.58;;
5841;SDS011;2947;52.276;9.946;2022-09-01T03:01:54;2.60;;;1.38;;
5841;SDS011;2947;52.276;9.946;2022-09-01T03:04:21;3.42;;;1.23;;
5841;SDS011;2947;52.276;9.946;2022-09-01T03:06:48;2.25;;;1.30;;
5841;SDS011;2947;52.276;9.946;2022-09-01T03:09:19;2.20;;;1.30;;
5841;SDS011;2947;52.276;9.946;2022-09-01T03:11:46;2.90;;;1.50;;
5841;SDS011;2947;52.276;9.946;2022-09-01T03:14:15;1.90;;;1.13;;
5841;SDS011;2947;52.276;9.946;2022-09-01T03:16:41;4.80;;;1.60;;
5841;SDS011;2947;52.276;9.946;2022-09-01T03:19:07;2.78;;;1.70;;
5841;SDS011;2947;52.276;9.946;2022-09-01T03:21:35;3.03;;;1.63;;
5841;SDS011;2947;52.276;9.946;2022-09-01T03:24:08;2.25;;;1.20;;
5841;SDS011;2947;52.276;9.946;2022-09-01T03:26:39;2.58;;;1.58;;
5841;SDS011;2947;52.276;9.946;2022-09-01T03:29:06;2.53;;;1.60;;
5841;SDS011;2947;52.276;9.946;2022-09-01T03:31:33;3.30;;;1.65;;
5841;SDS011;2947;52.276;9.946;2022-09-01T03:34:00;3.60;;;1.45;;
5841;SDS011;2947;52.276;9.946;2022-09-01T03:36:27;2.80;;;1.45;;
5841;SDS011;2947;52.276;9.946;2022-09-01T03:38:55;3.15;;;1.58;;
5841;SDS011;2947;52.276;9.946;2022-09-01T03:41:24;2.65;;;1.60;;
5841;SDS011;2947;52.276;9.946;2022-09-01T03:43:53;2.88;;;1.20;;
5841;SDS011;2947;52.276;9.946;2022-09-01T03:46:23;4.13;;;1.60;;
5841;SDS011;2947;52.276;9.946;2022-09-01T03:48:52;3.92;;;1.80;;
5841;SDS011;2947;52.276;9.946;2022-09-01T03:51:22;2.75;;;2.05;;
5841;SDS011;2947;52.276;9.946;2022-09-01T03:53:50;5.82;;;1.55;;
5841;SDS011;2947;52.276;9.946;2022-09-01T03:56:18;5.82;;;1.83;;
5841;SDS011;2947;52.276;9.946;2022-09-01T03:58:45;2.63;;;1.80;;
5841;SDS011;2947;52.276;9.946;2022-09-01T04:01:12;2.78;;;1.50;;
5841;SDS011;2947;52.276;9.946;2022-09-01T04:03:39;7.00;;;1.70;;
5841;SDS011;2947;52.276;9.946;2022-09-01T04:06:06;3.03;;;1.75;;
5841;SDS011;2947;52.276;9.946;2022-09-01T04:08:33;6.68;;;1.83;;
5841;SDS011;2947;52.276;9.946;2022-09-01T04:11:02;4.68;;;1.35;;
5841;SDS011;2947;52.276;9.946;2022-09-01T04:13:38;3.28;;;1.52;;
5841;SDS011;2947;52.276;9.946;2022-09-01T04:16:05;2.60;;;1.77;;
5841;SDS011;2947;52.276;9.946;2022-09-01T04:19:01;5.90;;;1.85;;
5841;SDS011;2947;52.276;9.946;2022-09-01T04:21:39;2.78;;;1.83;;
5841;SDS011;2947;52.276;9.946;2022-09-01T04:24:07;5.00;;;1.88;;
5841;SDS011;2947;52.276;9.946;2022-09-01T04:26:34;3.37;;;1.50;;
5841;SDS011;2947;52.276;9.946;2022-09-01T04:29:02;4.68;;;2.60;;
5841;SDS011;2947;52.276;9.946;2022-09-01T04:31:28;2.42;;;1.60;;
5841;SDS011;2947;52.276;9.946;2022-09-01T04:33:55;3.27;;;1.70;;
5841;SDS011;2947;52.276;9.946;2022-09-01T04:36:26;3.40;;;1.80;;
5841;SDS011;2947;52.276;9.946;2022-09-01T04:39:02;2.73;;;1.60;;
5841;SDS011;2947;52.276;9.946;2022-09-01T04:41:32;6.07;;;2.43;;
5841;SDS011;2947;52.276;9.946;2022-09-01T04:44:05;2.60;;;1.40;;
5841;SDS011;2947;52.276;9.946;2022-09-01T04:46:33;3.83;;;1.53;;
5841;SDS011;2947;52.276;9.946;2022-09-01T04:49:02;3.53;;;1.60;;
5841;SDS011;2947;52.276;9.946;2022-09-01T04:51:34;5.18;;;1.83;;
5841;SDS011;2947;52.276;9.946;2022-09-01T04:54:04;3.87;;;1.90;;
5841;SDS011;2947;52.276;9.946;2022-09-01T04:56:33;6.00;;;1.63;;
5841;SDS011;2947;52.276;9.946;2022-09-01T04:58:59;2.63;;;1.55;;
5841;SDS011;2947;52.276;9.946;2022-09-01T05:01:28;3.00;;;1.80;;
5841;SDS011;2947;52.276;9.946;2022-09-01T05:03:53;3.13;;;2.00;;
5841;SDS011;2947;52.276;9.946;2022-09-01T05:06:26;6.07;;;2.17;;
5841;SDS011;2947;52.276;9.946;2022-09-01T05:08:53;3.78;;;2.10;;
5841;SDS011;2947;52.276;9.946;2022-09-01T05:11:22;3.03;;;1.77;;
5841;SDS011;2947;52.276;9.946;2022-09-01T05:13:48;2.30;;;2.00;;
5841;SDS011;2947;52.276;9.946;2022-09-01T05:16:17;3.40;;;1.50;;
5841;SDS011;2947;52.276;9.946;2022-09-01T05:18:46;4.10;;;2.07;;
5841;SDS011;2947;52.276;9.946;2022-09-01T05:21:14;6.60;;;1.63;;
5841;SDS011;2947;52.276;9.946;2022-09-01T05:23:46;3.20;;;1.90;;
5841;SDS011;2947;52.276;9.946;2022-09-01T05:26:26;6.43;;;2.23;;
5841;SDS011;2947;52.276;9.946;2022-09-01T05:28:57;2.92;;;1.75;;
5841;SDS011;2947;52.276;9.946;2022-09-01T05:31:29;9.63;;;1.85;;
5841;SDS011;2947;52.276;9.946;2022-09-01T05:33:58;10.75;;;1.98;;
5841;SDS011;2947;52.276;9.946;2022-09-01T05:36:27;5.00;;;1.75;;
5841;SDS011;2947;52.276;9.946;2022-09-01T05:38:55;5.28;;;2.17;;
5841;SDS011;2947;52.276;9.946;2022-09-01T05:41:23;4.85;;;2.22;;
5841;SDS011;2947;52.276;9.946;2022-09-01T05:43:49;4.88;;;2.22;;
5841;SDS011;2947;52.276;9.946;2022-09-01T05:46:17;2.80;;;2.20;;
5841;SDS011;2947;52.276;9.946;2022-09-01T05:48:47;3.25;;;1.55;;
5841;SDS011;2947;52.276;9.946;2022-09-01T05:51:16;5.28;;;2.28;;
5841;SDS011;2947;52.276;9.946;2022-09-01T05:53:46;4.65;;;1.77;;
5841;SDS011;2947;52.276;9.946;2022-09-01T05:56:15;4.45;;;2.08;;
5841;SDS011;2947;52.276;9.946;2022-09-01T05:58:43;4.70;;;1.73;;
5841;SDS011;2947;52.276;9.946;2022-09-01T06:01:19;9.68;;;1.80;;
5841;SDS011;2947;52.276;9.946;2022-09-01T06:03:49;4.88;;;1.67;;
5841;SDS011;2947;52.276;9.946;2022-09-01T06:06:19;6.15;;;2.28;;
5841;SDS011;2947;52.276;9.946;2022-09-01T06:08:50;5.80;;;1.70;;
5841;SDS011;2947;52.276;9.946;2022-09-01T06:11:18;11.25;;;2.33;;
5841;SDS011;2947;52.276;9.946;2022-09-01T06:13:44;2.85;;;1.52;;
5841;SDS011;2947;52.276;9.946;2022-09-01T06:16:14;4.93;;;1.95;;
5841;SDS011;2947;52.276;9.946;2022-09-01T06:18:40;3.00;;;1.73;;
5841;SDS011;2947;52.276;9.946;2022-09-01T06:21:07;3.53;;;1.60;;
5841;SDS011;2947;52.276;9.946;2022-09-01T06:23:42;6.18;;;1.70;;
5841;SDS011;2947;52.276;9.946;2022-09-01T06:26:16;4.10;;;2.20;;
5841;SDS011;2947;52.276;9.946;2022-09-01T06:28:51;8.75;;;1.90;;
5841;SDS011;2947;52.276;9.946;2022-09-01T06:31:21;2.55;;;1.55;;
5841;SDS011;2947;52.276;9.946;2022-09-01T06:33:52;3.42;;;1.50;;
5841;SDS011;2947;52.276;9.946;2022-09-01T06:36:23;3.40;;;1.75;;
5841;SDS011;2947;52.276;9.946;2022-09-01T06:38:50;3.92;;;1.50;;
5841;SDS011;2947;52.276;9.946;2022-09-01T06:41:17;3.95;;;1.85;;
5841;SDS011;2947;52.276;9.946;2022-09-01T06:43:45;5.07;;;1.63;;
5841;SDS011;2947;52.276;9.946;2022-09-01T06:46:13;4.03;;;1.45;;
5841;SDS011;2947;52.276;9.946;2022-09-01T06:48:41;5.55;;;1.55;;
5841;SDS011;2947;52.276;9.946;2022-09-01T06:51:18;8.57;;;2.13;;
5841;SDS011;2947;52.276;9.946;2022-09-01T06:53:46;11.80;;;2.22;;
5841;SDS011;2947;52.276;9.946;2022-09-01T06:56:17;5.88;;;1.90;;
5841;SDS011;2947;52.276;9.946;2022-09-01T06:58:43;2.65;;;1.40;;
5841;SDS011;2947;52.276;9.946;2022-09-01T07:01:12;3.90;;;1.75;;
5841;SDS011;2947;52.276;9.946;2022-09-01T07:03:43;4.80;;;1.85;;
5841;SDS011;2947;52.276;9.946;2022-09-01T07:06:12;4.50;;;1.67;;
5841;SDS011;2947;52.276;9.946;2022-09-01T07:08:40;5.40;;;2.45;;
5841;SDS011;2947;52.276;9.946;2022-09-01T07:11:08;4.15;;;1.33;;
5841;SDS011;2947;52.276;9.946;2022-09-01T07:13:47;4.05;;;1.10;;
5841;SDS011;2947;52.276;9.946;2022-09-01T07:16:17;2.13;;;1.27;;
5841;SDS011;2947;52.276;9.946;2022-09-01T07:18:46;3.25;;;1.48;;
5841;SDS011;2947;52.276;9.946;2022-09-01T07:21:16;5.90;;;1.73;;
5841;SDS011;2947;52.276;9.946;2022-09-01T07:23:43;4.70;;;1.40;;
5841;SDS011;2947;52.276;9.946;2022-09-01T07:26:09;3.67;;;1.50;;
5841;SDS011;2947;52.276;9.946;2022-09-01T07:28:36;2.55;;;1.20;;
5841;SDS011;2947;52.276;9.946;2022-09-01T07:31:02;3.92;;;1.58;;
5841;SDS011;2947;52.276;9.946;2022-09-01T07:33:29;4.05;;;1.52;;
5841;SDS011;2947;52.276;9.946;2022-09-01T07:35:56;3.85;;;1.00;;
5841;SDS011;2947;52.276;9.946;2022-09-01T07:38:23;5.85;;;1.08;;
5841;SDS011;2947;52.276;9.946;2022-09-01T07:40:50;11.70;;;1.63;;
5841;SDS011;2947;52.276;9.946;2022-09-01T07:43:22;2.60;;;1.30;;
5841;SDS011;2947;52.276;9.946;2022-09-01T07:45:52;2.50;;;0.70;;
5841;SDS011;2947;52.276;9.946;2022-09-01T07:48:22;3.58;;;1.15;;
5841;SDS011;2947;52.276;9.946;2022-09-01T07:50:52;4.93;;;1.23;;
5841;SDS011;2947;52.276;9.946;2022-09-01T07:53:23;2.10;;;1.10;;
5841;SDS011;2947;52.276;9.946;2022-09-01T07:55:58;3.50;;;1.17;;
5841;SDS011;2947;52.276;9.946;2022-09-01T07:58:33;2.85;;;1.17;;
5841;SDS011;2947;52.276;9.946;2022-09-01T08:01:00;3.42;;;1.10;;
5841;SDS011;2947;52.276;9.946;2022-09-01T08:03:27;2.45;;;0.93;;
5841;SDS011;2947;52.276;9.946;2022-09-01T08:05:54;2.03;;;0.90;;
5841;SDS011;2947;52.276;9.946;2022-09-01T08:08:25;2.17;;;0.82;;
5841;SDS011;2947;52.276;9.946;2022-09-01T08:10:51;5.63;;;1.90;;
5841;SDS011;2947;52.276;9.946;2022-09-01T08:13:19;2.53;;;0.90;;
5841;SDS011;2947;52.276;9.946;2022-09-01T08:15:45;5.15;;;1.10;;
5841;SDS011;2947;52.276;9.946;2022-09-01T08:18:11;2.60;;;1.15;;
5841;SDS011;2947;52.276;9.946;2022-09-01T08:20:38;2.70;;;0.95;;
5841;SDS011;2947;52.276;9.946;2022-09-01T08:23:09;4.32;;;1.02;;
5841;SDS011;2947;52.276;9.946;2022-09-01T08:25:39;3.35;;;1.30;;
5841;SDS011;2947;52.276;9.946;2022-09-01T08:28:06;2.30;;;0.93;;
5841;SDS011;2947;52.276;9.946;2022-09-01T08:30:32;3.90;;;0.90;;
5841;SDS011;2947;52.276;9.946;2022-09-01T08:33:00;2.40;;;0.80;;
5841;SDS011;2947;52.276;9.946;2022-09-01T08:35:26;1.83;;;0.70;;
5841;SDS011;2947;52.276;9.946;2022-09-01T08:37:53;5.65;;;0.98;;
5841;SDS011;2947;52.276;9.946;2022-09-01T08:40:21;8.05;;;1.02;;
5841;SDS011;2947;52.276;9.946;2022-09-01T08:45:45;2.60;;;1.15;;
5841;SDS011;2947;52.276;9.946;2022-09-01T08:51:14;4.78;;;1.88;;
5841;SDS011;2947;52.276;9.946;2022-09-01T08:53:55;4.72;;;0.90;;
5841;SDS011;2947;52.276;9.946;2022-09-01T08:56:53;1.98;;;0.60;;
5841;SDS011;2947;52.276;9.946;2022-09-01T08:59:26;1.70;;;0.60;;
5841;SDS011;2947;52.276;9.946;2022-09-01T09:16:46;1.70;;;0.65;;
5841;SDS011;2947;52.276;9.946;2022-09-01T09:19:28;2.20;;;0.70;;
5841;SDS011;2947;52.276;9.946;2022-09-01T09:21:58;1.90;;;0.55;;
5841;SDS011;2947;52.276;9.946;2022-09-01T09:24:29;1.75;;;0.70;;
5841;SDS011;2947;52.276;9.946;2022-09-01T09:27:16;1.85;;;0.65;;
5841;SDS011;2947;52.276;9.946;2022-09-01T09:32:24;1.90;;;0.60;;
5841;SDS011;2947;52.276;9.946;2022-09-01T09:35:31;4.57;;;0.75;;
5841;SDS011;2947;52.276;9.946;2022-09-01T09:43:22;1.75;;;0.85;;
5841;SDS011;2947;52.276;9.946;2022-09-01T09:45:49;3.03;;;0.70;;
5841;SDS011;2947;52.276;9.946;2022-09-01T09:48:28;1.98;;;0.70;;
5841;SDS011;2947;52.276;9.946;2022-09-01T09:51:13;2.55;;;0.70;;
5841;SDS011;2947;52.276;9.946;2022-09-01T09:53:42;8.85;;;0.98;;
5841;SDS011;2947;52.276;9.946;2022-09-01T09:56:15;1.67;;;0.68;;
5841;SDS011;2947;52.276;9.946;2022-09-01T09:58:48;2.55;;;0.80;;
5841;SDS011;2947;52.276;9.946;2022-09-01T10:03:57;3.22;;;0.70;;
5841;SDS011;2947;52.276;9.946;2022-09-01T10:08:59;2.05;;;0.70;;
5841;SDS011;2947;52.276;9.946;2022-09-01T10:11:50;1.85;;;0.50;;
5841;SDS011;2947;52.276;9.946;2022-09-01T10:14:54;4.07;;;0.70;;
5841;SDS011;2947;52.276;9.946;2022-09-01T10:22:35;1.60;;;0.40;;
5841;SDS011;2947;52.276;9.946;2022-09-01T10:25:04;1.67;;;0.70;;
5841;SDS011;2947;52.276;9.946;2022-09-01T10:27:36;1.80;;;0.63;;
5841;SDS011;2947;52.276;9.946;2022-09-01T10:30:14;1.50;;;0.60;;
5841;SDS011;2947;52.276;9.946;2022-09-01T10:32:46;2.30;;;0.52;;
5841;SDS011;2947;52.276;9.946;2022-09-01T10:35:21;1.80;;;0.60;;
5841;SDS011;2947;52.276;9.946;2022-09-01T10:38:05;1.60;;;0.60;;
5841;SDS011;2947;52.276;9.946;2022-09-01T10:40:39;2.67;;;0.73;;
5841;SDS011;2947;52.276;9.946;2022-09-01T10:48:49;1.77;;;0.80;;
5841;SDS011;2947;52.276;9.946;2022-09-01T10:53:47;1.40;;;0.50;;
5841;SDS011;2947;52.276;9.946;2022-09-01T11:04:09;1.45;;;0.60;;
5841;SDS011;2947;52.276;9.946;2022-09-01T11:12:48;3.05;;;0.88;;
5841;SDS011;2947;52.276;9.946;2022-09-01T11:15:51;1.85;;;0.70;;
5841;SDS011;2947;52.276;9.946;2022-09-01T11:18:25;3.22;;;0.57;;
5841;SDS011;2947;52.276;9.946;2022-09-01T11:20:54;2.05;;;0.85;;
5841;SDS011;2947;52.276;9.946;2022-09-01T11:23:48;2.92;;;0.93;;
5841;SDS011;2947;52.276;9.946;2022-09-01T11:28:58;1.67;;;0.70;;
5841;SDS011;2947;52.276;9.946;2022-09-01T11:31:32;7.18;;;0.60;;
5841;SDS011;2947;52.276;9.946;2022-09-01T11:44:26;2.20;;;0.70;;
5841;SDS011;2947;52.276;9.946;2022-09-01T11:47:16;1.30;;;0.40;;
5841;SDS011;2947;52.276;9.946;2022-09-01T11:50:01;2.03;;;0.60;;
5841;SDS011;2947;52.276;9.946;2022-09-01T11:52:33;2.65;;;0.52;;
5841;SDS011;2947;52.276;9.946;2022-09-01T11:55:03;3.17;;;0.70;;
5841;SDS011;2947;52.276;9.946;2022-09-01T11:57:31;4.30;;;0.73;;
5841;SDS011;2947;52.276;9.946;2022-09-01T12:00:05;1.90;;;0.80;;
5841;SDS011;2947;52.276;9.946;2022-09-01T12:02:55;2.50;;;0.82;;
5841;SDS011;2947;52.276;9.946;2022-09-01T12:05:30;3.17;;;0.73;;
5841;SDS011;2947;52.276;9.946;2022-09-01T12:08:14;1.67;;;0.50;;
5841;SDS011;2947;52.276;9.946;2022-09-01T12:10:43;1.80;;;0.63;;
5841;SDS011;2947;52.276;9.946;2022-09-01T12:13:10;2.63;;;0.68;;
5841;SDS011;2947;52.276;9.946;2022-09-01T12:15:43;1.67;;;0.52;;
5841;SDS011;2947;52.276;9.946;2022-09-01T12:18:26;1.98;;;0.63;;
5841;SDS011;2947;52.276;9.946;2022-09-01T12:21:05;2.22;;;0.50;;
5841;SDS011;2947;52.276;9.946;2022-09-01T12:23:35;2.65;;;0.88;;
5841;SDS011;2947;52.276;9.946;2022-09-01T12:26:08;3.50;;;0.75;;
5841;SDS011;2947;52.276;9.946;2022-09-01T12:28:38;2.10;;;0.70;;
5841;SDS011;2947;52.276;9.946;2022-09-01T12:31:12;1.60;;;0.65;;
5841;SDS011;2947;52.276;9.946;2022-09-01T12:33:45;1.70;;;0.55;;
5841;SDS011;2947;52.276;9.946;2022-09-01T12:36:34;2.72;;;0.90;;
5841;SDS011;2947;52.276;9.946;2022-09-01T12:41:43;2.28;;;0.70;;
5841;SDS011;2947;52.276;9.946;2022-09-01T12:47:11;4.22;;;0.68;;
5841;SDS011;2947;52.276;9.946;2022-09-01T12:50:06;3.65;;;0.80;;
5841;SDS011;2947;52.276;9.946;2022-09-01T12:52:50;1.50;;;0.50;;
5841;SDS011;2947;52.276;9.946;2022-09-01T12:55:21;1.60;;;0.52;;
5841;SDS011;2947;52.276;9.946;2022-09-01T12:57:59;1.50;;;0.68;;
5841;SDS011;2947;52.276;9.946;2022-09-01T13:00:30;2.08;;;0.70;;
5841;SDS011;2947;52.276;9.946;2022-09-01T13:05:32;1.65;;;0.70;;
5841;SDS011;2947;52.276;9.946;2022-09-01T13:08:12;2.33;;;0.70;;
5841;SDS011;2947;52.276;9.946;2022-09-01T13:10:49;2.42;;;0.60;;
5841;SDS011;2947;52.276;9.946;2022-09-01T13:13:18;1.65;;;0.60;;
5841;SDS011;2947;52.276;9.946;2022-09-01T13:15:49;1.73;;;0.57;;
5841;SDS011;2947;52.276;9.946;2022-09-01T13:18:22;1.60;;;0.50;;
5841;SDS011;2947;52.276;9.946;2022-09-01T13:20:49;12.65;;;0.60;;
5841;SDS011;2947;52.276;9.946;2022-09-01T13:23:18;2.13;;;1.05;;
5841;SDS011;2947;52.276;9.946;2022-09-01T13:25:44;1.50;;;0.47;;
5841;SDS011;2947;52.276;9.946;2022-09-01T13:28:10;2.58;;;0.55;;
5841;SDS011;2947;52.276;9.946;2022-09-01T13:30:38;1.40;;;0.50;;
5841;SDS011;2947;52.276;9.946;2022-09-01T13:33:04;1.60;;;0.50;;
5841;SDS011;2947;52.276;9.946;2022-09-01T13:35:31;2.22;;;0.65;;
5841;SDS011;2947;52.276;9.946;2022-09-01T13:37:57;12.75;;;1.05;;
5841;SDS011;2947;52.276;9.946;2022-09-01T13:40:23;2.67;;;0.50;;
5841;SDS011;2947;52.276;9.946;2022-09-01T13:42:50;1.60;;;0.60;;
5841;SDS011;2947;52.276;9.946;2022-09-01T13:45:19;2.33;;;0.60;;
5841;SDS011;2947;52.276;9.946;2022-09-01T13:47:50;3.53;;;0.50;;
5841;SDS011;2947;52.276;9.946;2022-09-01T13:50:17;2.80;;;0.63;;
5841;SDS011;2947;52.276;9.946;2022-09-01T13:52:55;1.75;;;0.63;;
5841;SDS011;2947;52.276;9.946;2022-09-01T13:55:22;1.40;;;0.50;;
5841;SDS011;2947;52.276;9.946;2022-09-01T13:57:56;1.60;;;0.60;;
5841;SDS011;2947;52.276;9.946;2022-09-01T14:00:24;1.50;;;0.70;;
5841;SDS011;2947;52.276;9.946;2022-09-01T14:02:54;1.48;;;0.50;;
5841;SDS011;2947;52.276;9.946;2022-09-01T14:05:26;2.00;;;0.70;;
5841;SDS011;2947;52.276;9.946;2022-09-01T14:07:54;6.47;;;0.80;;
5841;SDS011;2947;52.276;9.946;2022-09-01T14:10:23;1.70;;;0.68;;
5841;SDS011;2947;52.276;9.946;2022-09-01T14:12:50;4.20;;;0.70;;
5841;SDS011;2947;52.276;9.946;2022-09-01T14:15:17;2.38;;;0.70;;
5841;SDS011;2947;52.276;9.946;2022-09-01T14:17:45;1.55;;;0.50;;
5841;SDS011;2947;52.276;9.946;2022-09-01T14:20:15;3.15;;;0.80;;
5841;SDS011;2947;52.276;9.946;2022-09-01T14:22:47;2.65;;;0.68;;
5841;SDS011;2947;52.276;9.946;2022-09-01T14:25:14;2.53;;;0.60;;
5841;SDS011;2947;52.276;9.946;2022-09-01T14:27:42;1.60;;;0.70;;
5841;SDS011;2947;52.276;9.946;2022-09-01T14:30:10;1.85;;;0.50;;
5841;SDS011;2947;52.276;9.946;2022-09-01T14:32:56;2.47;;;0.70;;
5841;SDS011;2947;52.276;9.946;2022-09-01T14:35:23;2.00;;;0.70;;
5841;SDS011;2947;52.276;9.946;2022-09-01T14:37:50;1.30;;;0.50;;
5841;SDS011;2947;52.276;9.946;2022-09-01T14:40:19;2.13;;;0.70;;
5841;SDS011;2947;52.276;9.946;2022-09-01T14:42:47;1.92;;;0.70;;
5841;SDS011;2947;52.276;9.946;2022-09-01T14:45:17;2.00;;;0.88;;
5841;SDS011;2947;52.276;9.946;2022-09-01T14:47:46;2.03;;;0.90;;
5841;SDS011;2947;52.276;9.946;2022-09-01T14:50:15;1.65;;;0.70;;
5841;SDS011;2947;52.276;9.946;2022-09-01T14:52:43;4.40;;;0.73;;
5841;SDS011;2947;52.276;9.946;2022-09-01T14:55:09;1.95;;;0.80;;
5841;SDS011;2947;52.276;9.946;2022-09-01T14:57:35;1.30;;;0.60;;
5841;SDS011;2947;52.276;9.946;2022-09-01T15:00:01;2.30;;;0.88;;
5841;SDS011;2947;52.276;9.946;2022-09-01T15:02:34;2.42;;;0.52;;
5841;SDS011;2947;52.276;9.946;2022-09-01T15:05:01;2.53;;;0.60;;
5841;SDS011;2947;52.276;9.946;2022-09-01T15:07:27;1.50;;;0.60;;
5841;SDS011;2947;52.276;9.946;2022-09-01T15:09:53;4.53;;;0.70;;
5841;SDS011;2947;52.276;9.946;2022-09-01T15:12:19;1.42;;;0.60;;
5841;SDS011;2947;52.276;9.946;2022-09-01T15:14:46;2.42;;;0.80;;
5841;SDS011;2947;52.276;9.946;2022-09-01T15:17:12;2.08;;;0.80;;
5841;SDS011;2947;52.276;9.946;2022-09-01T15:19:37;2.92;;;0.47;;
5841;SDS011;2947;52.276;9.946;2022-09-01T15:22:03;1.45;;;0.55;;
5841;SDS011;2947;52.276;9.946;2022-09-01T15:24:31;2.10;;;0.60;;
5841;SDS011;2947;52.276;9.946;2022-09-01T15:26:56;5.50;;;0.45;;
5841;SDS011;2947;52.276;9.946;2022-09-01T15:29:22;2.00;;;0.60;;
5841;SDS011;2947;52.276;9.946;2022-09-01T15:31:48;1.58;;;0.55;;
5841;SDS011;2947;52.276;9.946;2022-09-01T15:34:14;1.88;;;0.60;;
5841;SDS011;2947;52.276;9.946;2022-09-01T15:36:42;1.98;;;0.60;;
5841;SDS011;2947;52.276;9.946;2022-09-01T15:39:09;2.15;;;1.02;;
5841;SDS011;2947;52.276;9.946;2022-09-01T15:41:35;1.85;;;0.70;;
5841;SDS011;2947;52.276;9.946;2022-09-01T15:44:03;1.60;;;0.50;;
5841;SDS011;2947;52.276;9.946;2022-09-01T15:46:31;5.43;;;0.75;;
5841;SDS011;2947;52.276;9.946;2022-09-01T15:48:59;4.32;;;0.73;;
5841;SDS011;2947;52.276;9.946;2022-09-01T15:54:12;2.35;;;0.65;;
5841;SDS011;2947;52.276;9.946;2022-09-01T15:56:41;2.40;;;0.70;;
5841;SDS011;2947;52.276;9.946;2022-09-01T15:59:08;3.35;;;0.77;;
5841;SDS011;2947;52.276;9.946;2022-09-01T16:01:36;1.77;;;0.60;;
5841;SDS011;2947;52.276;9.946;2022-09-01T16:04:06;1.52;;;0.50;;
5841;SDS011;2947;52.276;9.946;2022-09-01T16:06:40;1.75;;;0.68;;
5841;SDS011;2947;52.276;9.946;2022-09-01T16:09:08;2.70;;;0.85;;
5841;SDS011;2947;52.276;9.946;2022-09-01T16:11:34;5.35;;;0.70;;
5841;SDS011;2947;52.276;9.946;2022-09-01T16:14:00;1.83;;;0.63;;
5841;SDS011;2947;52.276;9.946;2022-09-01T16:22:29;8.20;;;0.60;;
5841;SDS011;2947;52.276;9.946;2022-09-01T16:25:03;4.30;;;0.55;;
5841;SDS011;2947;52.276;9.946;2022-09-01T16:27:42;1.55;;;0.60;;
5841;SDS011;2947;52.276;9.946;2022-09-01T16:30:10;2.17;;;0.73;;
5841;SDS011;2947;52.276;9.946;2022-09-01T16:32:42;1.75;;;0.77;;
5841;SDS011;2947;52.276;9.946;2022-09-01T16:35:11;3.42;;;0.55;;
5841;SDS011;2947;52.276;9.946;2022-09-01T16:40:44;2.10;;;0.60;;
5841;SDS011;2947;52.276;9.946;2022-09-01T16:43:25;1.70;;;0.50;;
5841;SDS011;2947;52.276;9.946;2022-09-01T16:48:56;4.00;;;0.70;;
5841;SDS011;2947;52.276;9.946;2022-09-01T16:52:03;2.53;;;1.63;;
5841;SDS011;2947;52.276;9.946;2022-09-01T16:54:49;1.70;;;0.50;;
5841;SDS011;2947;52.276;9.946;2022-09-01T17:00:07;2.95;;;1.33;;
5841;SDS011;2947;52.276;9.946;2022-09-01T17:11:14;5.60;;;0.60;;
5841;SDS011;2947;52.276;9.946;2022-09-01T17:13:57;2.40;;;0.70;;
5841;SDS011;2947;52.276;9.946;2022-09-01T17:16:32;3.67;;;0.68;;
5841;SDS011;2947;52.276;9.946;2022-09-01T17:19:04;1.50;;;0.40;;
5841;SDS011;2947;52.276;9.946;2022-09-01T17:21:52;2.40;;;0.60;;
5841;SDS011;2947;52.276;9.946;2022-09-01T17:29:58;1.73;;;0.57;;
5841;SDS011;2947;52.276;9.946;2022-09-01T17:38:00;1.40;;;0.50;;
5841;SDS011;2947;52.276;9.946;2022-09-01T17:46:19;4.65;;;0.70;;
5841;SDS011;2947;52.276;9.946;2022-09-01T17:52:13;3.60;;;0.50;;
5841;SDS011;2947;52.276;9.946;2022-09-01T18:10:31;4.70;;;0.80;;